sensor_id;sensor_type;location;lat;lon;timestamp;P1;durP1;ratioP1;P2;durP2;ratioP2
61397;SDS011;47267;48.130;-2.040;2024-02-04T00:02:19;4.28;;;2.17;;
61397;SDS011;47267;48.130;-2.040;2024-02-04T00:04:47;4.93;;;2.42;;
61397;SDS011;47267;48.130;-2.040;2024-02-04T00:07:13;2.83;;;2.20;;
61397;SDS011;47267;48.130;-2.040;2024-02-04T00:09:39;4.30;;;3.00;;
61397;SDS011;47267;48.130;-2.040;2024-02-04T00:12:04;3.20;;;2.42;;
61397;SDS011;47267;48.130;-2.040;2024-02-04T00:14:31;3.97;;;2.47;;
61397;SDS011;47267;48.130;-2.040;2024-02-04T00:16:57;3.78;;;2.50;;
61397;SDS011;47267;48.130;-2.040;2024-02-04T00:19:23;3.00;;;2.30;;
61397;SDS011;47267;48.130;-2.040;2024-02-04T00:21:49;5.15;;;2.67;;
61397;SDS011;47267;48.130;-2.040;2024-02-04T00:24:15;3.88;;;2.58;;
61397;SDS011;47267;48.130;-2.040;2024-02-04T00:26:41;3.40;;;2.30;;
61397;SDS011;47267;48.130;-2.040;2024-02-04T00:29:07;3.00;;;2.22;;
61397;SDS011;47267;48.130;-2.040;2024-02-04T00:31:32;3.83;;;2.40;;
61397;SDS011;47267;48.130;-2.040;2024-02-04T00:33:58;3.35;;;2.40;;
61397;SDS011;47267;48.130;-2.040;2024-02-04T00:36:24;4.95;;;2.70;;
61397;SDS011;47267;48.130;-2.040;2024-02-04T00:38:49;3.45;;;2.50;;
61397;SDS011;47267;48.130;-2.040;2024-02-04T00:41:15;3.20;;;2.30;;
61397;SDS011;47267;48.130;-2.040;2024-02-04T00:43:41;3.05;;;2.10;;
61397;SDS011;47267;48.130;-2.040;2024-02-04T00:46:06;3.47;;;2.10;;
61397;SDS011;47267;48.130;-2.040;2024-02-04T00:48:35;4.13;;;2.13;;
61397;SDS011;47267;48.130;-2.040;2024-02-04T00:51:01;3.47;;;2.05;;
61397;SDS011;47267;48.130;-2.040;2024-02-04T00:53:27;2.83;;;2.30;;
61397;SDS011;47267;48.130;-2.040;2024-02-04T00:55:58;3.90;;;2.42;;
61397;SDS011;47267;48.130;-2.040;2024-02-04T00:58:30;3.08;;;2.20;;
61397;SDS011;47267;48.130;-2.040;2024-02-04T01:00:56;4.30;;;2.03;;
61397;SDS011;47267;48.130;-2.040;2024-02-04T01:03:22;3.17;;;2.13;;
61397;SDS011;47267;48.130;-2.040;2024-02-04T01:05:48;2.97;;;2.03;;
61397;SDS011;47267;48.130;-2.040;2024-02-04T01:08:13;3.25;;;1.90;;
61397;SDS011;47267;48.130;-2.040;2024-02-04T01:10:39;4.50;;;2.42;;
61397;SDS011;47267;48.130;-2.040;2024-02-04T01:13:04;5.32;;;2.42;;
61397;SDS011;47267;48.130;-2.040;2024-02-04T01:15:30;2.92;;;2.13;;
61397;SDS011;47267;48.130;-2.040;2024-02-04T01:17:56;3.20;;;2.20;;
61397;SDS011;47267;48.130;-2.040;2024-02-04T01:20:22;3.67;;;2.00;;
61397;SDS011;47267;48.130;-2.040;2024-02-04T01:22:47;5.32;;;2.20;;
61397;SDS011;47267;48.130;-2.040;2024-02-04T01:25:13;3.22;;;2.03;;
61397;SDS011;47267;48.130;-2.040;2024-02-04T01:27:39;3.50;;;2.00;;
61397;SDS011;47267;48.130;-2.040;2024-02-04T01:30:05;3.10;;;2.08;;
61397;SDS011;47267;48.130;-2.040;2024-02-04T01:32:31;4.20;;;1.90;;
61397;SDS011;47267;48.130;-2.040;2024-02-04T01:34:56;3.33;;;2.10;;
61397;SDS011;47267;48.130;-2.040;2024-02-04T01:37:22;2.00;;;1.80;;
61397;SDS011;47267;48.130;-2.040;2024-02-04T01:39:48;3.80;;;2.00;;
61397;SDS011;47267;48.130;-2.040;2024-02-04T01:42:14;2.85;;;2.10;;
61397;SDS011;47267;48.130;-2.040;2024-02-04T01:44:39;3.65;;;1.80;;
61397;SDS011;47267;48.130;-2.040;2024-02-04T01:47:05;3.78;;;1.77;;
61397;SDS011;47267;48.130;-2.040;2024-02-04T01:49:31;3.90;;;2.13;;
61397;SDS011;47267;48.130;-2.040;2024-02-04T01:51:57;3.88;;;2.17;;
61397;SDS011;47267;48.130;-2.040;2024-02-04T01:54:23;3.88;;;1.80;;
61397;SDS011;47267;48.130;-2.040;2024-02-04T01:56:50;4.72;;;1.80;;
61397;SDS011;47267;48.130;-2.040;2024-02-04T01:59:17;3.20;;;1.80;;
61397;SDS011;47267;48.130;-2.040;2024-02-04T02:01:45;2.55;;;1.92;;
61397;SDS011;47267;48.130;-2.040;2024-02-04T02:04:12;3.63;;;1.80;;
61397;SDS011;47267;48.130;-2.040;2024-02-04T02:06:39;4.78;;;2.20;;
61397;SDS011;47267;48.130;-2.040;2024-02-04T02:09:08;2.40;;;1.60;;
61397;SDS011;47267;48.130;-2.040;2024-02-04T02:11:40;3.58;;;1.80;;
61397;SDS011;47267;48.130;-2.040;2024-02-04T02:14:10;2.97;;;1.80;;
61397;SDS011;47267;48.130;-2.040;2024-02-04T02:16:43;2.80;;;1.95;;
61397;SDS011;47267;48.130;-2.040;2024-02-04T02:19:59;2.78;;;1.60;;
61397;SDS011;47267;48.130;-2.040;2024-02-04T02:22:14;3.78;;;1.60;;
61397;SDS011;47267;48.130;-2.040;2024-02-04T02:24:59;5.57;;;2.10;;
61397;SDS011;47267;48.130;-2.040;2024-02-04T02:27:29;4.43;;;1.80;;
61397;SDS011;47267;48.130;-2.040;2024-02-04T02:29:55;3.10;;;1.67;;
61397;SDS011;47267;48.130;-2.040;2024-02-04T02:32:21;3.20;;;1.80;;
61397;SDS011;47267;48.130;-2.040;2024-02-04T02:34:47;4.15;;;1.80;;
61397;SDS011;47267;48.130;-2.040;2024-02-04T02:40:02;2.95;;;1.75;;
61397;SDS011;47267;48.130;-2.040;2024-02-04T02:42:35;4.03;;;1.73;;
61397;SDS011;47267;48.130;-2.040;2024-02-04T02:45:03;3.33;;;2.03;;
61397;SDS011;47267;48.130;-2.040;2024-02-04T02:47:31;2.83;;;1.77;;
61397;SDS011;47267;48.130;-2.040;2024-02-04T02:49:58;2.85;;;1.77;;
61397;SDS011;47267;48.130;-2.040;2024-02-04T02:52:25;3.75;;;1.70;;
61397;SDS011;47267;48.130;-2.040;2024-02-04T02:54:51;3.15;;;1.70;;
61397;SDS011;47267;48.130;-2.040;2024-02-04T02:57:17;2.85;;;1.85;;
61397;SDS011;47267;48.130;-2.040;2024-02-04T02:59:42;3.15;;;1.65;;
61397;SDS011;47267;48.130;-2.040;2024-02-04T03:02:08;2.47;;;1.42;;
61397;SDS011;47267;48.130;-2.040;2024-02-04T03:04:34;4.03;;;1.77;;
61397;SDS011;47267;48.130;-2.040;2024-02-04T03:06:59;3.30;;;1.92;;
61397;SDS011;47267;48.130;-2.040;2024-02-04T03:09:25;1.77;;;1.42;;
61397;SDS011;47267;48.130;-2.040;2024-02-04T03:11:51;4.30;;;1.25;;
61397;SDS011;47267;48.130;-2.040;2024-02-04T03:14:16;2.53;;;1.15;;
61397;SDS011;47267;48.130;-2.040;2024-02-04T03:16:44;2.08;;;1.58;;
61397;SDS011;47267;48.130;-2.040;2024-02-04T03:19:10;3.78;;;1.63;;
61397;SDS011;47267;48.130;-2.040;2024-02-04T03:21:35;2.72;;;1.60;;
61397;SDS011;47267;48.130;-2.040;2024-02-04T03:24:01;3.42;;;1.60;;
61397;SDS011;47267;48.130;-2.040;2024-02-04T03:26:27;2.70;;;1.80;;
61397;SDS011;47267;48.130;-2.040;2024-02-04T03:28:52;3.20;;;1.83;;
61397;SDS011;47267;48.130;-2.040;2024-02-04T03:31:21;3.53;;;1.40;;
61397;SDS011;47267;48.130;-2.040;2024-02-04T03:33:48;3.58;;;1.40;;
61397;SDS011;47267;48.130;-2.040;2024-02-04T03:36:21;2.80;;;1.75;;
61397;SDS011;47267;48.130;-2.040;2024-02-04T03:38:51;4.30;;;1.75;;
61397;SDS011;47267;48.130;-2.040;2024-02-04T03:41:17;3.58;;;1.52;;
61397;SDS011;47267;48.130;-2.040;2024-02-04T03:43:43;4.75;;;1.88;;
61397;SDS011;47267;48.130;-2.040;2024-02-04T03:46:12;2.80;;;1.75;;
61397;SDS011;47267;48.130;-2.040;2024-02-04T03:48:39;2.83;;;1.40;;
61397;SDS011;47267;48.130;-2.040;2024-02-04T03:51:05;2.75;;;1.48;;
61397;SDS011;47267;48.130;-2.040;2024-02-04T03:53:31;4.00;;;1.55;;
61397;SDS011;47267;48.130;-2.040;2024-02-04T03:55:56;3.50;;;1.30;;
61397;SDS011;47267;48.130;-2.040;2024-02-04T03:58:22;3.80;;;1.48;;
61397;SDS011;47267;48.130;-2.040;2024-02-04T04:00:54;5.18;;;1.52;;
61397;SDS011;47267;48.130;-2.040;2024-02-04T04:03:21;2.08;;;1.83;;
61397;SDS011;47267;48.130;-2.040;2024-02-04T04:05:47;2.20;;;1.30;;
61397;SDS011;47267;48.130;-2.040;2024-02-04T04:08:13;3.38;;;1.67;;
61397;SDS011;47267;48.130;-2.040;2024-02-04T04:10:39;1.92;;;1.35;;
61397;SDS011;47267;48.130;-2.040;2024-02-04T04:13:04;2.88;;;1.27;;
61397;SDS011;47267;48.130;-2.040;2024-02-04T04:15:30;3.30;;;1.40;;
61397;SDS011;47267;48.130;-2.040;2024-02-04T04:17:55;4.45;;;1.50;;
61397;SDS011;47267;48.130;-2.040;2024-02-04T04:20:21;2.85;;;1.60;;
61397;SDS011;47267;48.130;-2.040;2024-02-04T04:22:47;2.60;;;1.33;;
61397;SDS011;47267;48.130;-2.040;2024-02-04T04:25:12;4.05;;;1.60;;
61397;SDS011;47267;48.130;-2.040;2024-02-04T04:27:39;3.10;;;1.50;;
61397;SDS011;47267;48.130;-2.040;2024-02-04T04:30:05;4.75;;;1.60;;
61397;SDS011;47267;48.130;-2.040;2024-02-04T04:32:31;2.45;;;1.52;;
61397;SDS011;47267;48.130;-2.040;2024-02-04T04:34:57;3.30;;;1.48;;
61397;SDS011;47267;48.130;-2.040;2024-02-04T04:37:23;3.58;;;1.30;;
61397;SDS011;47267;48.130;-2.040;2024-02-04T04:39:48;1.90;;;1.25;;
61397;SDS011;47267;48.130;-2.040;2024-02-04T04:42:14;5.30;;;1.70;;
61397;SDS011;47267;48.130;-2.040;2024-02-04T04:44:40;3.20;;;1.23;;
61397;SDS011;47267;48.130;-2.040;2024-02-04T04:47:05;3.33;;;1.77;;
61397;SDS011;47267;48.130;-2.040;2024-02-04T04:49:31;3.45;;;1.45;;
61397;SDS011;47267;48.130;-2.040;2024-02-04T04:51:57;3.92;;;1.63;;
61397;SDS011;47267;48.130;-2.040;2024-02-04T04:54:23;2.90;;;1.48;;
61397;SDS011;47267;48.130;-2.040;2024-02-04T04:56:48;1.98;;;1.30;;
61397;SDS011;47267;48.130;-2.040;2024-02-04T04:59:17;2.25;;;1.60;;
61397;SDS011;47267;48.130;-2.040;2024-02-04T05:01:46;2.13;;;1.30;;
61397;SDS011;47267;48.130;-2.040;2024-02-04T05:04:15;1.85;;;1.17;;
61397;SDS011;47267;48.130;-2.040;2024-02-04T05:06:41;7.13;;;1.70;;
61397;SDS011;47267;48.130;-2.040;2024-02-04T05:09:07;4.05;;;1.45;;
61397;SDS011;47267;48.130;-2.040;2024-02-04T05:11:33;3.40;;;1.52;;
61397;SDS011;47267;48.130;-2.040;2024-02-04T05:13:58;2.08;;;1.30;;
61397;SDS011;47267;48.130;-2.040;2024-02-04T05:16:24;2.55;;;1.52;;
61397;SDS011;47267;48.130;-2.040;2024-02-04T05:18:50;3.33;;;1.40;;
61397;SDS011;47267;48.130;-2.040;2024-02-04T05:21:15;4.03;;;1.35;;
61397;SDS011;47267;48.130;-2.040;2024-02-04T05:23:42;4.00;;;1.45;;
61397;SDS011;47267;48.130;-2.040;2024-02-04T05:26:07;2.80;;;1.35;;
61397;SDS011;47267;48.130;-2.040;2024-02-04T05:28:33;2.95;;;1.38;;
61397;SDS011;47267;48.130;-2.040;2024-02-04T05:30:58;2.50;;;1.40;;
61397;SDS011;47267;48.130;-2.040;2024-02-04T05:33:26;2.78;;;1.40;;
61397;SDS011;47267;48.130;-2.040;2024-02-04T05:35:52;2.50;;;1.13;;
61397;SDS011;47267;48.130;-2.040;2024-02-04T05:38:17;3.45;;;1.52;;
61397;SDS011;47267;48.130;-2.040;2024-02-04T05:40:43;3.55;;;1.42;;
61397;SDS011;47267;48.130;-2.040;2024-02-04T05:43:09;3.83;;;1.40;;
61397;SDS011;47267;48.130;-2.040;2024-02-04T05:45:36;2.50;;;1.58;;
61397;SDS011;47267;48.130;-2.040;2024-02-04T05:48:04;3.28;;;1.30;;
61397;SDS011;47267;48.130;-2.040;2024-02-04T05:50:30;3.03;;;1.30;;
61397;SDS011;47267;48.130;-2.040;2024-02-04T05:52:55;4.03;;;1.30;;
61397;SDS011;47267;48.130;-2.040;2024-02-04T05:55:21;3.40;;;1.30;;
61397;SDS011;47267;48.130;-2.040;2024-02-04T05:57:47;3.17;;;1.52;;
61397;SDS011;47267;48.130;-2.040;2024-02-04T06:00:13;2.85;;;1.30;;
61397;SDS011;47267;48.130;-2.040;2024-02-04T06:02:39;4.15;;;1.30;;
61397;SDS011;47267;48.130;-2.040;2024-02-04T06:05:05;2.00;;;1.10;;
61397;SDS011;47267;48.130;-2.040;2024-02-04T06:07:31;4.43;;;1.27;;
61397;SDS011;47267;48.130;-2.040;2024-02-04T06:09:56;2.20;;;1.30;;
61397;SDS011;47267;48.130;-2.040;2024-02-04T06:12:24;2.55;;;1.10;;
61397;SDS011;47267;48.130;-2.040;2024-02-04T06:14:50;2.15;;;0.98;;
61397;SDS011;47267;48.130;-2.040;2024-02-04T06:17:16;2.72;;;1.05;;
61397;SDS011;47267;48.130;-2.040;2024-02-04T06:19:41;2.60;;;1.42;;
61397;SDS011;47267;48.130;-2.040;2024-02-04T06:22:07;3.25;;;1.20;;
61397;SDS011;47267;48.130;-2.040;2024-02-04T06:24:33;2.20;;;1.25;;
61397;SDS011;47267;48.130;-2.040;2024-02-04T06:26:58;3.03;;;1.20;;
61397;SDS011;47267;48.130;-2.040;2024-02-04T06:29:24;3.85;;;1.20;;
61397;SDS011;47267;48.130;-2.040;2024-02-04T06:31:50;2.80;;;1.10;;
61397;SDS011;47267;48.130;-2.040;2024-02-04T06:34:15;3.00;;;0.98;;
61397;SDS011;47267;48.130;-2.040;2024-02-04T06:36:44;5.18;;;1.45;;
61397;SDS011;47267;48.130;-2.040;2024-02-04T06:39:10;2.95;;;1.30;;
61397;SDS011;47267;48.130;-2.040;2024-02-04T06:41:36;1.95;;;1.15;;
61397;SDS011;47267;48.130;-2.040;2024-02-04T06:44:04;2.88;;;1.27;;
61397;SDS011;47267;48.130;-2.040;2024-02-04T06:46:30;2.92;;;1.30;;
61397;SDS011;47267;48.130;-2.040;2024-02-04T06:48:56;2.08;;;1.23;;
61397;SDS011;47267;48.130;-2.040;2024-02-04T06:51:22;1.67;;;0.93;;
61397;SDS011;47267;48.130;-2.040;2024-02-04T06:53:48;4.43;;;1.23;;
61397;SDS011;47267;48.130;-2.040;2024-02-04T06:56:14;3.03;;;1.20;;
61397;SDS011;47267;48.130;-2.040;2024-02-04T06:58:40;3.70;;;1.40;;
61397;SDS011;47267;48.130;-2.040;2024-02-04T07:01:06;2.65;;;1.25;;
61397;SDS011;47267;48.130;-2.040;2024-02-04T07:03:32;2.88;;;1.45;;
61397;SDS011;47267;48.130;-2.040;2024-02-04T07:05:58;2.03;;;1.30;;
61397;SDS011;47267;48.130;-2.040;2024-02-04T07:08:24;3.35;;;1.45;;
61397;SDS011;47267;48.130;-2.040;2024-02-04T07:10:50;5.32;;;1.27;;
61397;SDS011;47267;48.130;-2.040;2024-02-04T07:13:16;3.75;;;1.40;;
61397;SDS011;47267;48.130;-2.040;2024-02-04T07:15:42;3.63;;;1.35;;
61397;SDS011;47267;48.130;-2.040;2024-02-04T07:18:08;2.25;;;1.30;;
61397;SDS011;47267;48.130;-2.040;2024-02-04T07:20:34;2.28;;;1.40;;
61397;SDS011;47267;48.130;-2.040;2024-02-04T07:23:00;3.20;;;1.50;;
61397;SDS011;47267;48.130;-2.040;2024-02-04T07:25:25;2.88;;;1.00;;
61397;SDS011;47267;48.130;-2.040;2024-02-04T07:27:51;2.00;;;1.20;;
61397;SDS011;47267;48.130;-2.040;2024-02-04T07:30:17;3.97;;;1.40;;
61397;SDS011;47267;48.130;-2.040;2024-02-04T07:32:42;2.28;;;0.90;;
61397;SDS011;47267;48.130;-2.040;2024-02-04T07:35:09;2.55;;;1.23;;
61397;SDS011;47267;48.130;-2.040;2024-02-04T07:37:35;3.00;;;1.15;;
61397;SDS011;47267;48.130;-2.040;2024-02-04T07:40:01;3.88;;;1.27;;
61397;SDS011;47267;48.130;-2.040;2024-02-04T07:42:27;2.70;;;1.38;;
61397;SDS011;47267;48.130;-2.040;2024-02-04T07:44:53;2.92;;;1.13;;
61397;SDS011;47267;48.130;-2.040;2024-02-04T07:47:20;3.05;;;1.25;;
61397;SDS011;47267;48.130;-2.040;2024-02-04T07:49:46;2.85;;;1.10;;
61397;SDS011;47267;48.130;-2.040;2024-02-04T07:52:13;3.15;;;1.88;;
61397;SDS011;47267;48.130;-2.040;2024-02-04T07:54:38;2.28;;;1.20;;
61397;SDS011;47267;48.130;-2.040;2024-02-04T07:57:04;3.28;;;1.38;;
61397;SDS011;47267;48.130;-2.040;2024-02-04T07:59:30;3.15;;;1.30;;
61397;SDS011;47267;48.130;-2.040;2024-02-04T08:01:55;1.83;;;1.10;;
61397;SDS011;47267;48.130;-2.040;2024-02-04T08:04:21;4.93;;;1.75;;
61397;SDS011;47267;48.130;-2.040;2024-02-04T08:06:47;2.97;;;1.20;;
61397;SDS011;47267;48.130;-2.040;2024-02-04T08:09:13;3.00;;;1.20;;
61397;SDS011;47267;48.130;-2.040;2024-02-04T08:11:38;2.63;;;1.10;;
61397;SDS011;47267;48.130;-2.040;2024-02-04T08:14:05;3.75;;;1.20;;
61397;SDS011;47267;48.130;-2.040;2024-02-04T08:16:30;4.65;;;1.50;;
61397;SDS011;47267;48.130;-2.040;2024-02-04T08:18:56;3.08;;;1.00;;
61397;SDS011;47267;48.130;-2.040;2024-02-04T08:21:22;2.70;;;1.40;;
61397;SDS011;47267;48.130;-2.040;2024-02-04T08:23:48;3.97;;;1.20;;
61397;SDS011;47267;48.130;-2.040;2024-02-04T08:26:13;2.30;;;1.30;;
61397;SDS011;47267;48.130;-2.040;2024-02-04T08:28:39;2.35;;;1.10;;
61397;SDS011;47267;48.130;-2.040;2024-02-04T08:31:05;3.97;;;1.38;;
61397;SDS011;47267;48.130;-2.040;2024-02-04T08:33:31;2.58;;;1.05;;
61397;SDS011;47267;48.130;-2.040;2024-02-04T08:35:56;5.97;;;1.60;;
61397;SDS011;47267;48.130;-2.040;2024-02-04T08:38:22;3.65;;;1.30;;
61397;SDS011;47267;48.130;-2.040;2024-02-04T08:40:48;2.72;;;1.30;;
61397;SDS011;47267;48.130;-2.040;2024-02-04T08:43:13;3.53;;;1.30;;
61397;SDS011;47267;48.130;-2.040;2024-02-04T08:45:39;2.58;;;1.17;;
61397;SDS011;47267;48.130;-2.040;2024-02-04T08:48:05;3.40;;;1.40;;
61397;SDS011;47267;48.130;-2.040;2024-02-04T08:50:31;5.15;;;1.70;;
61397;SDS011;47267;48.130;-2.040;2024-02-04T08:52:56;5.18;;;1.70;;
61397;SDS011;47267;48.130;-2.040;2024-02-04T08:55:23;3.40;;;1.45;;
61397;SDS011;47267;48.130;-2.040;2024-02-04T08:57:48;4.13;;;1.50;;
61397;SDS011;47267;48.130;-2.040;2024-02-04T09:00:14;3.85;;;1.80;;
61397;SDS011;47267;48.130;-2.040;2024-02-04T09:02:41;5.03;;;1.30;;
61397;SDS011;47267;48.130;-2.040;2024-02-04T09:05:07;6.80;;;1.70;;
61397;SDS011;47267;48.130;-2.040;2024-02-04T09:07:33;3.40;;;1.60;;
61397;SDS011;47267;48.130;-2.040;2024-02-04T09:09:59;5.45;;;1.55;;
61397;SDS011;47267;48.130;-2.040;2024-02-04T09:12:24;3.15;;;1.45;;
61397;SDS011;47267;48.130;-2.040;2024-02-04T09:14:50;6.20;;;1.60;;
61397;SDS011;47267;48.130;-2.040;2024-02-04T09:17:15;3.45;;;1.50;;
61397;SDS011;47267;48.130;-2.040;2024-02-04T09:19:41;5.00;;;1.75;;
61397;SDS011;47267;48.130;-2.040;2024-02-04T09:22:07;6.10;;;1.70;;
61397;SDS011;47267;48.130;-2.040;2024-02-04T09:24:32;3.47;;;1.40;;
61397;SDS011;47267;48.130;-2.040;2024-02-04T09:26:58;3.70;;;1.35;;
61397;SDS011;47267;48.130;-2.040;2024-02-04T09:29:24;3.75;;;1.55;;
61397;SDS011;47267;48.130;-2.040;2024-02-04T09:31:50;4.05;;;1.50;;
61397;SDS011;47267;48.130;-2.040;2024-02-04T09:34:16;2.67;;;1.23;;
61397;SDS011;47267;48.130;-2.040;2024-02-04T09:36:43;3.45;;;1.33;;
61397;SDS011;47267;48.130;-2.040;2024-02-04T09:39:09;3.97;;;2.00;;
61397;SDS011;47267;48.130;-2.040;2024-02-04T09:41:34;4.45;;;1.60;;
61397;SDS011;47267;48.130;-2.040;2024-02-04T09:44:00;5.43;;;1.52;;
61397;SDS011;47267;48.130;-2.040;2024-02-04T09:46:28;7.43;;;2.30;;
61397;SDS011;47267;48.130;-2.040;2024-02-04T09:48:55;4.47;;;1.77;;
61397;SDS011;47267;48.130;-2.040;2024-02-04T09:51:21;4.75;;;1.67;;
61397;SDS011;47267;48.130;-2.040;2024-02-04T09:53:49;3.28;;;1.52;;
61397;SDS011;47267;48.130;-2.040;2024-02-04T09:56:18;4.80;;;1.30;;
61397;SDS011;47267;48.130;-2.040;2024-02-04T09:58:47;5.35;;;1.63;;
61397;SDS011;47267;48.130;-2.040;2024-02-04T10:01:13;5.93;;;1.58;;
61397;SDS011;47267;48.130;-2.040;2024-02-04T10:03:41;7.32;;;1.63;;
61397;SDS011;47267;48.130;-2.040;2024-02-04T10:06:06;4.43;;;1.63;;
61397;SDS011;47267;48.130;-2.040;2024-02-04T10:08:33;6.88;;;1.58;;
61397;SDS011;47267;48.130;-2.040;2024-02-04T10:11:01;5.07;;;1.63;;
61397;SDS011;47267;48.130;-2.040;2024-02-04T10:13:27;6.68;;;2.17;;
61397;SDS011;47267;48.130;-2.040;2024-02-04T10:15:53;6.45;;;1.90;;
61397;SDS011;47267;48.130;-2.040;2024-02-04T10:18:18;7.05;;;1.80;;
61397;SDS011;47267;48.130;-2.040;2024-02-04T10:20:44;6.32;;;1.88;;
61397;SDS011;47267;48.130;-2.040;2024-02-04T10:23:11;8.10;;;1.60;;
61397;SDS011;47267;48.130;-2.040;2024-02-04T10:25:39;7.35;;;1.77;;
61397;SDS011;47267;48.130;-2.040;2024-02-04T10:28:05;5.50;;;2.00;;
61397;SDS011;47267;48.130;-2.040;2024-02-04T10:30:30;3.60;;;1.33;;
61397;SDS011;47267;48.130;-2.040;2024-02-04T10:32:56;4.00;;;1.38;;
61397;SDS011;47267;48.130;-2.040;2024-02-04T10:35:25;4.60;;;1.60;;
61397;SDS011;47267;48.130;-2.040;2024-02-04T10:37:51;5.93;;;1.92;;
61397;SDS011;47267;48.130;-2.040;2024-02-04T10:40:17;4.20;;;1.77;;
61397;SDS011;47267;48.130;-2.040;2024-02-04T10:42:43;6.40;;;1.83;;
61397;SDS011;47267;48.130;-2.040;2024-02-04T10:45:10;4.68;;;1.67;;
61397;SDS011;47267;48.130;-2.040;2024-02-04T10:47:39;6.88;;;2.13;;
61397;SDS011;47267;48.130;-2.040;2024-02-04T10:50:07;6.15;;;1.98;;
61397;SDS011;47267;48.130;-2.040;2024-02-04T10:52:37;5.07;;;1.50;;
61397;SDS011;47267;48.130;-2.040;2024-02-04T10:55:06;5.95;;;1.90;;
61397;SDS011;47267;48.130;-2.040;2024-02-04T10:57:34;4.88;;;1.40;;
61397;SDS011;47267;48.130;-2.040;2024-02-04T11:00:04;3.45;;;1.73;;
61397;SDS011;47267;48.130;-2.040;2024-02-04T11:02:36;6.63;;;2.20;;
61397;SDS011;47267;48.130;-2.040;2024-02-04T11:05:04;3.80;;;1.75;;
61397;SDS011;47267;48.130;-2.040;2024-02-04T11:07:33;5.85;;;1.60;;
61397;SDS011;47267;48.130;-2.040;2024-02-04T11:10:00;6.80;;;2.08;;
61397;SDS011;47267;48.130;-2.040;2024-02-04T11:12:27;4.95;;;1.60;;
61397;SDS011;47267;48.130;-2.040;2024-02-04T11:14:54;7.90;;;1.65;;
61397;SDS011;47267;48.130;-2.040;2024-02-04T11:17:36;7.45;;;2.10;;
61397;SDS011;47267;48.130;-2.040;2024-02-04T11:25:48;5.63;;;2.08;;
61397;SDS011;47267;48.130;-2.040;2024-02-04T11:28:18;7.05;;;1.85;;
61397;SDS011;47267;48.130;-2.040;2024-02-04T11:30:46;7.90;;;1.75;;
61397;SDS011;47267;48.130;-2.040;2024-02-04T11:33:12;7.13;;;1.90;;
61397;SDS011;47267;48.130;-2.040;2024-02-04T11:35:43;6.28;;;2.13;;
61397;SDS011;47267;48.130;-2.040;2024-02-04T11:38:10;4.40;;;1.90;;
61397;SDS011;47267;48.130;-2.040;2024-02-04T11:40:38;4.15;;;1.90;;
61397;SDS011;47267;48.130;-2.040;2024-02-04T11:43:05;6.15;;;2.10;;
61397;SDS011;47267;48.130;-2.040;2024-02-04T11:45:41;6.40;;;2.42;;
61397;SDS011;47267;48.130;-2.040;2024-02-04T11:48:08;6.40;;;2.30;;
61397;SDS011;47267;48.130;-2.040;2024-02-04T11:50:37;6.67;;;2.70;;
61397;SDS011;47267;48.130;-2.040;2024-02-04T11:53:07;6.10;;;2.47;;
61397;SDS011;47267;48.130;-2.040;2024-02-04T11:55:41;6.40;;;2.58;;
61397;SDS011;47267;48.130;-2.040;2024-02-04T11:58:07;8.30;;;2.78;;
61397;SDS011;47267;48.130;-2.040;2024-02-04T12:00:34;6.65;;;2.55;;
61397;SDS011;47267;48.130;-2.040;2024-02-04T12:03:01;6.30;;;2.65;;
61397;SDS011;47267;48.130;-2.040;2024-02-04T12:05:39;9.85;;;2.45;;
61397;SDS011;47267;48.130;-2.040;2024-02-04T12:08:06;7.00;;;2.40;;
61397;SDS011;47267;48.130;-2.040;2024-02-04T12:10:33;6.00;;;2.15;;
61397;SDS011;47267;48.130;-2.040;2024-02-04T12:13:03;8.23;;;2.40;;
61397;SDS011;47267;48.130;-2.040;2024-02-04T12:15:31;10.00;;;2.80;;
61397;SDS011;47267;48.130;-2.040;2024-02-04T12:18:07;6.80;;;2.60;;
61397;SDS011;47267;48.130;-2.040;2024-02-04T12:20:33;8.25;;;2.83;;
61397;SDS011;47267;48.130;-2.040;2024-02-04T12:23:02;9.35;;;2.55;;
61397;SDS011;47267;48.130;-2.040;2024-02-04T12:25:28;8.35;;;2.47;;
61397;SDS011;47267;48.130;-2.040;2024-02-04T12:27:56;4.47;;;2.20;;
61397;SDS011;47267;48.130;-2.040;2024-02-04T12:30:24;8.23;;;2.80;;
61397;SDS011;47267;48.130;-2.040;2024-02-04T12:32:58;9.38;;;2.58;;
61397;SDS011;47267;48.130;-2.040;2024-02-04T12:35:26;8.48;;;2.85;;
61397;SDS011;47267;48.130;-2.040;2024-02-04T12:37:55;12.40;;;3.10;;
61397;SDS011;47267;48.130;-2.040;2024-02-04T12:40:29;10.32;;;2.40;;
61397;SDS011;47267;48.130;-2.040;2024-02-04T12:42:56;9.35;;;2.50;;
61397;SDS011;47267;48.130;-2.040;2024-02-04T12:45:23;6.18;;;2.40;;
61397;SDS011;47267;48.130;-2.040;2024-02-04T12:47:50;10.20;;;2.40;;
61397;SDS011;47267;48.130;-2.040;2024-02-04T12:50:17;7.15;;;2.38;;
61397;SDS011;47267;48.130;-2.040;2024-02-04T12:52:44;6.45;;;2.20;;
61397;SDS011;47267;48.130;-2.040;2024-02-04T12:55:20;6.97;;;2.40;;
61397;SDS011;47267;48.130;-2.040;2024-02-04T12:57:49;8.98;;;2.30;;
61397;SDS011;47267;48.130;-2.040;2024-02-04T13:00:18;5.55;;;2.70;;
61397;SDS011;47267;48.130;-2.040;2024-02-04T13:02:44;6.72;;;2.17;;
61397;SDS011;47267;48.130;-2.040;2024-02-04T13:05:21;6.05;;;2.40;;
61397;SDS011;47267;48.130;-2.040;2024-02-04T13:10:25;8.07;;;2.40;;
61397;SDS011;47267;48.130;-2.040;2024-02-04T13:15:30;8.65;;;2.50;;
61397;SDS011;47267;48.130;-2.040;2024-02-04T13:18:05;13.02;;;2.80;;
61397;SDS011;47267;48.130;-2.040;2024-02-04T13:20:36;7.82;;;2.38;;
61397;SDS011;47267;48.130;-2.040;2024-02-04T13:23:03;6.88;;;2.40;;
61397;SDS011;47267;48.130;-2.040;2024-02-04T13:25:32;6.55;;;2.58;;
61397;SDS011;47267;48.130;-2.040;2024-02-04T13:27:58;7.38;;;2.75;;
61397;SDS011;47267;48.130;-2.040;2024-02-04T13:30:24;7.55;;;2.22;;
61397;SDS011;47267;48.130;-2.040;2024-02-04T13:32:50;10.68;;;2.72;;
61397;SDS011;47267;48.130;-2.040;2024-02-04T13:35:17;7.97;;;2.47;;
61397;SDS011;47267;48.130;-2.040;2024-02-04T13:37:45;7.28;;;2.42;;
61397;SDS011;47267;48.130;-2.040;2024-02-04T13:40:15;6.45;;;2.38;;
61397;SDS011;47267;48.130;-2.040;2024-02-04T13:42:42;7.55;;;2.22;;
61397;SDS011;47267;48.130;-2.040;2024-02-04T13:45:09;9.02;;;2.60;;
61397;SDS011;47267;48.130;-2.040;2024-02-04T13:47:35;9.23;;;2.40;;
61397;SDS011;47267;48.130;-2.040;2024-02-04T13:50:01;9.75;;;2.42;;
61397;SDS011;47267;48.130;-2.040;2024-02-04T13:52:27;5.68;;;2.47;;
61397;SDS011;47267;48.130;-2.040;2024-02-04T13:54:53;10.52;;;2.80;;
61397;SDS011;47267;48.130;-2.040;2024-02-04T13:57:19;7.25;;;2.28;;
61397;SDS011;47267;48.130;-2.040;2024-02-04T13:59:45;6.15;;;2.28;;
61397;SDS011;47267;48.130;-2.040;2024-02-04T14:02:10;8.30;;;2.95;;
61397;SDS011;47267;48.130;-2.040;2024-02-04T14:04:36;8.02;;;2.20;;
61397;SDS011;47267;48.130;-2.040;2024-02-04T14:07:02;11.25;;;2.92;;
61397;SDS011;47267;48.130;-2.040;2024-02-04T14:09:28;9.25;;;2.58;;
61397;SDS011;47267;48.130;-2.040;2024-02-04T14:11:54;10.05;;;2.80;;
61397;SDS011;47267;48.130;-2.040;2024-02-04T14:14:23;9.65;;;3.05;;
61397;SDS011;47267;48.130;-2.040;2024-02-04T14:16:49;8.70;;;2.45;;
61397;SDS011;47267;48.130;-2.040;2024-02-04T14:19:15;7.10;;;2.30;;
61397;SDS011;47267;48.130;-2.040;2024-02-04T14:21:41;7.93;;;2.65;;
61397;SDS011;47267;48.130;-2.040;2024-02-04T14:24:08;8.57;;;2.42;;
61397;SDS011;47267;48.130;-2.040;2024-02-04T14:26:34;7.82;;;2.05;;
61397;SDS011;47267;48.130;-2.040;2024-02-04T14:29:00;6.32;;;2.22;;
61397;SDS011;47267;48.130;-2.040;2024-02-04T14:31:26;6.05;;;2.35;;
61397;SDS011;47267;48.130;-2.040;2024-02-04T14:33:52;6.13;;;2.20;;
61397;SDS011;47267;48.130;-2.040;2024-02-04T14:36:18;6.40;;;2.05;;
61397;SDS011;47267;48.130;-2.040;2024-02-04T14:38:44;9.45;;;2.45;;
61397;SDS011;47267;48.130;-2.040;2024-02-04T14:41:10;9.40;;;2.35;;
61397;SDS011;47267;48.130;-2.040;2024-02-04T14:43:36;12.25;;;2.63;;
61397;SDS011;47267;48.130;-2.040;2024-02-04T14:46:01;7.20;;;2.35;;